Time;durP1;ratioP1;P1;durP2;ratioP2;P2;SDS_P1;SDS_P2;PMS_P1;PMS_P2;Temp;Humidity;BMP_temperature;BMP_pressure;BME280_temperature;BME280_humidity;BME280_pressure;Samples;Min_cycle;Max_cycle;Signal;HPM_P1;HPM_P2
2021/06/27 00:01:15;;;;;;;;;;;16.30;84.10;;;;;;5030642;28;19917;-68
2021/06/27 00:03:41;;;;;;;;;;;16.30;84.20;;;;;;5030769;28;19971;-66
2021/06/27 00:06:07;;;;;;;;;;;16.30;84.40;;;;;;5030906;28;19921;-68
2021/06/27 00:08:33;;;;;;;;;;;16.20;84.40;;;;;;5015593;28;20001;-68
2021/06/27 00:10:59;;;;;;;;;;;16.20;84.60;;;;;;5033215;28;19917;-67
2021/06/27 00:13:26;;;;;;;;;;;16.10;84.60;;;;;;5034038;28;19970;-67
2021/06/27 00:15:51;;;;;;;;;;;16.10;84.80;;;;;;5034313;28;19924;-68
2021/06/27 00:18:18;;;;;;;;;;;16.10;85.00;;;;;;5034226;28;19918;-68
2021/06/27 00:20:45;;;;;;;;;;;16.00;85.10;;;;;;5033970;28;20404;-68
2021/06/27 00:23:12;;;;;;;;;;;16.00;85.20;;;;;;5016643;28;20379;-68
2021/06/27 00:25:38;;;;;;;;;;;16.00;85.30;;;;;;5034105;28;20012;-68
2021/06/27 00:28:04;;;;;;;;;;;15.90;85.30;;;;;;5015931;28;20004;-68
2021/06/27 00:30:30;;;;;;;;;;;15.90;85.60;;;;;;5016333;28;20018;-68
2021/06/27 00:32:56;;;;;;;;;;;15.90;85.70;;;;;;5033652;28;20381;-69
2021/06/27 00:35:22;;;;;;;;;;;15.80;85.70;;;;;;5033869;28;19921;-68
2021/06/27 00:37:47;;;;;;;;;;;15.80;85.90;;;;;;5033647;28;20388;-68
2021/06/27 00:40:14;;;;;;;;;;;15.80;86.00;;;;;;5033364;28;19917;-68
2021/06/27 00:42:40;;;;;;;;;;;15.80;86.10;;;;;;5033888;28;19996;-68
2021/06/27 00:45:08;;;;;;;;;;;15.70;86.10;;;;;;5063184;23;20456;-62
2021/06/27 00:47:34;;;;;;;;;;;15.70;86.10;;;;;;5053015;28;20012;-61
2021/06/27 00:50:00;;;;;;;;;;;15.70;86.20;;;;;;5053724;28;20380;-62
2021/06/27 00:52:26;;;;;;;;;;;15.60;86.20;;;;;;5053173;28;20003;-62
2021/06/27 00:54:52;;;;;;;;;;;15.60;86.40;;;;;;5015672;28;19953;-62
2021/06/27 00:57:18;;;;;;;;;;;15.60;87.00;;;;;;5032003;28;20304;-62
2021/06/27 00:59:43;;;;;;;;;;;15.60;86.60;;;;;;5015274;28;19967;-62
2021/06/27 01:02:09;;;;;;;;;;;15.60;86.70;;;;;;5033435;28;19917;-61
2021/06/27 01:04:36;;;;;;;;;;;15.50;86.70;;;;;;5033430;28;20004;-62
2021/06/27 01:07:01;;;;;;;;;;;15.50;86.80;;;;;;5032777;28;19960;-62
2021/06/27 01:09:27;;;;;;;;;;;15.50;86.90;;;;;;5033275;28;19953;-61
2021/06/27 01:11:52;;;;;;;;;;;15.50;87.00;;;;;;5015381;28;19968;-62
2021/06/27 01:14:19;;;;;;;;;;;15.50;87.00;;;;;;5015415;28;19975;-61
2021/06/27 01:16:45;;;;;;;;;;;15.40;87.00;;;;;;5032858;28;19927;-62
2021/06/27 01:19:10;;;;;;;;;;;15.40;87.10;;;;;;5032680;28;19929;-62
2021/06/27 01:21:36;;;;;;;;;;;15.40;87.20;;;;;;5015343;28;19918;-62
2021/06/27 01:24:03;;;;;;;;;;;15.30;87.20;;;;;;5032908;28;19924;-62
2021/06/27 01:26:28;;;;;;;;;;;15.30;87.30;;;;;;5032539;28;20055;-61
2021/06/27 01:28:54;;;;;;;;;;;15.30;87.30;;;;;;5032664;28;19987;-61
2021/06/27 01:31:19;;;;;;;;;;;15.30;87.50;;;;;;5014756;28;19921;-62
2021/06/27 01:33:46;;;;;;;;;;;15.20;87.50;;;;;;5032860;28;19940;-62
2021/06/27 01:36:12;;;;;;;;;;;15.20;87.70;;;;;;5032626;28;20381;-62
2021/06/27 01:38:37;;;;;;;;;;;15.20;87.80;;;;;;5032006;28;19932;-61
2021/06/27 01:41:04;;;;;;;;;;;15.20;87.90;;;;;;5014960;28;19923;-61
2021/06/27 01:43:30;;;;;;;;;;;15.20;88.00;;;;;;5032802;28;19918;-62
2021/06/27 01:45:57;;;;;;;;;;;15.20;88.10;;;;;;5032035;28;19922;-62
2021/06/27 01:48:23;;;;;;;;;;;15.20;88.10;;;;;;5032405;28;20381;-62
2021/06/27 01:50:50;;;;;;;;;;;15.20;88.10;;;;;;5014521;28;19918;-62
2021/06/27 01:53:17;;;;;;;;;;;15.20;88.10;;;;;;5032419;28;19996;-62
2021/06/27 01:55:42;;;;;;;;;;;15.20;88.10;;;;;;5032307;28;19921;-62
2021/06/27 01:58:08;;;;;;;;;;;15.20;88.10;;;;;;5031666;28;20377;-62
2021/06/27 02:00:34;;;;;;;;;;;15.20;88.20;;;;;;5032237;28;19917;-62
2021/06/27 02:03:00;;;;;;;;;;;15.10;88.30;;;;;;5031904;28;19918;-62
2021/06/27 02:05:27;;;;;;;;;;;15.10;88.40;;;;;;5032209;28;19971;-62
2021/06/27 02:07:53;;;;;;;;;;;15.10;88.50;;;;;;5031880;28;19917;-61
2021/06/27 02:10:20;;;;;;;;;;;15.10;88.60;;;;;;5031859;28;19974;-61
2021/06/27 02:12:46;;;;;;;;;;;15.10;88.70;;;;;;5014407;28;20304;-61
2021/06/27 02:15:12;;;;;;;;;;;15.10;88.80;;;;;;5013762;28;19921;-61
2021/06/27 02:17:46;;;;;;;;;;;15.10;88.90;;;;;;5031959;28;19972;-61
2021/06/27 02:20:12;;;;;;;;;;;15.10;89.00;;;;;;5031682;28;19917;-62
2021/06/27 02:22:38;;;;;;;;;;;15.10;89.10;;;;;;5031850;28;19925;-62
2021/06/27 02:25:04;;;;;;;;;;;15.20;89.20;;;;;;5030755;28;20332;-62
2021/06/27 02:27:29;;;;;;;;;;;15.20;89.30;;;;;;5031152;28;20001;-62
2021/06/27 02:29:55;;;;;;;;;;;15.20;89.30;;;;;;5031434;28;20329;-62
2021/06/27 02:32:22;;;;;;;;;;;15.30;89.40;;;;;;5031837;28;20300;-62
2021/06/27 02:34:47;;;;;;;;;;;15.30;89.30;;;;;;5031151;28;19921;-66
2021/06/27 02:37:13;;;;;;;;;;;15.30;89.30;;;;;;5031440;28;19982;-66
2021/06/27 02:39:39;;;;;;;;;;;15.40;89.30;;;;;;5031769;28;19955;-63
2021/06/27 02:42:05;;;;;;;;;;;15.30;89.30;;;;;;5021724;28;20309;-62
2021/06/27 02:44:31;;;;;;;;;;;15.40;89.40;;;;;;5030478;28;19921;-62
2021/06/27 02:46:56;;;;;;;;;;;15.40;89.50;;;;;;5013398;28;19917;-62
2021/06/27 02:49:23;;;;;;;;;;;15.40;89.50;;;;;;5031602;28;19921;-62
2021/06/27 02:51:49;;;;;;;;;;;15.40;89.40;;;;;;5031532;28;20017;-62
2021/06/27 02:54:15;;;;;;;;;;;15.50;89.50;;;;;;5031109;28;20424;-62
2021/06/27 02:56:40;;;;;;;;;;;15.50;89.50;;;;;;5031263;28;20017;-62
2021/06/27 02:59:06;;;;;;;;;;;15.60;89.60;;;;;;5031445;28;19964;-62
2021/06/27 03:01:31;;;;;;;;;;;15.60;89.80;;;;;;5013533;28;20277;-62
2021/06/27 03:03:57;;;;;;;;;;;15.70;89.70;;;;;;5031367;28;20086;-62
2021/06/27 03:06:22;;;;;;;;;;;15.70;89.60;;;;;;5030995;28;19917;-62
2021/06/27 03:08:48;;;;;;;;;;;15.80;89.60;;;;;;5013374;28;20003;-62
2021/06/27 03:11:14;;;;;;;;;;;15.80;89.60;;;;;;5031472;28;20373;-62
2021/06/27 03:13:40;;;;;;;;;;;15.80;89.60;;;;;;5030908;28;19917;-62
2021/06/27 03:16:07;;;;;;;;;;;15.90;89.60;;;;;;5031200;28;19925;-62
2021/06/27 03:18:33;;;;;;;;;;;15.90;89.50;;;;;;5031089;28;19924;-62
2021/06/27 03:20:58;;;;;;;;;;;16.00;89.50;;;;;;5013281;28;20370;-62
2021/06/27 03:23:26;;;;;;;;;;;15.90;89.50;;;;;;5031264;28;19917;-62
2021/06/27 03:25:52;;;;;;;;;;;16.00;89.60;;;;;;5012983;28;19924;-62
2021/06/27 03:28:19;;;;;;;;;;;16.10;89.60;;;;;;5030882;28;19917;-62
2021/06/27 03:30:44;;;;;;;;;;;16.10;89.50;;;;;;5013542;28;19925;-62
2021/06/27 03:33:10;;;;;;;;;;;16.10;89.40;;;;;;5030749;28;19913;-62
2021/06/27 03:35:35;;;;;;;;;;;16.20;89.50;;;;;;5030976;28;19925;-62
2021/06/27 03:38:11;;;;;;;;;;;16.20;89.50;;;;;;5029681;28;19917;-62
2021/06/27 03:40:38;;;;;;;;;;;16.30;89.50;;;;;;5013152;28;19917;-62
2021/06/27 03:43:04;;;;;;;;;;;16.30;89.40;;;;;;5033695;28;19917;-62
2021/06/27 03:45:29;;;;;;;;;;;16.40;89.30;;;;;;5032972;28;19921;-62
2021/06/27 03:47:55;;;;;;;;;;;16.50;89.30;;;;;;5033259;28;19924;-62
2021/06/27 03:50:21;;;;;;;;;;;16.50;89.20;;;;;;5034679;28;19925;-62
2021/06/27 03:52:47;;;;;;;;;;;16.40;89.10;;;;;;5034404;28;20383;-62
2021/06/27 03:55:13;;;;;;;;;;;16.50;89.10;;;;;;5034493;28;20395;-62
2021/06/27 03:57:38;;;;;;;;;;;16.50;89.10;;;;;;5034467;28;20439;-62
2021/06/27 04:00:05;;;;;;;;;;;16.50;89.10;;;;;;5034347;28;19917;-62
2021/06/27 04:02:37;;;;;;;;;;;16.60;89.10;;;;;;5034652;28;19924;-62
2021/06/27 04:05:04;;;;;;;;;;;16.60;89.10;;;;;;5034113;28;20004;-62
2021/06/27 04:07:29;;;;;;;;;;;16.60;89.10;;;;;;5034232;28;19943;-62
2021/06/27 04:09:55;;;;;;;;;;;16.70;89.10;;;;;;5033837;28;19921;-62
2021/06/27 04:12:20;;;;;;;;;;;16.70;89.10;;;;;;5034405;28;19917;-62
2021/06/27 04:14:46;;;;;;;;;;;16.70;89.00;;;;;;5034223;28;20003;-62
2021/06/27 04:17:16;;;;;;;;;;;16.80;89.10;;;;;;5033535;28;19965;-62
2021/06/27 04:19:42;;;;;;;;;;;16.80;89.00;;;;;;5034226;28;19917;-62
2021/06/27 04:22:07;;;;;;;;;;;16.90;88.90;;;;;;5033707;28;19924;-62
2021/06/27 04:24:33;;;;;;;;;;;17.00;88.80;;;;;;5034064;28;19949;-62
2021/06/27 04:26:58;;;;;;;;;;;17.00;88.80;;;;;;5033883;28;19917;-62
2021/06/27 04:29:24;;;;;;;;;;;17.10;88.80;;;;;;5033827;28;19928;-62
2021/06/27 04:31:50;;;;;;;;;;;17.10;88.70;;;;;;5032726;28;19918;-62
2021/06/27 04:34:16;;;;;;;;;;;17.20;88.70;;;;;;5033913;28;20301;-62
2021/06/27 04:36:42;;;;;;;;;;;17.20;88.60;;;;;;5033261;28;20300;-62
2021/06/27 04:39:08;;;;;;;;;;;17.30;88.60;;;;;;5033835;28;19917;-62
2021/06/27 04:41:34;;;;;;;;;;;17.30;88.60;;;;;;5033857;28;19924;-62
2021/06/27 04:44:00;;;;;;;;;;;17.40;88.50;;;;;;5015711;28;19918;-62
2021/06/27 04:46:25;;;;;;;;;;;17.50;88.60;;;;;;5033920;28;19917;-62
2021/06/27 04:48:51;;;;;;;;;;;17.60;88.50;;;;;;5032981;28;20284;-62
2021/06/27 04:51:17;;;;;;;;;;;17.70;88.50;;;;;;5033756;28;19917;-62
2021/06/27 04:53:42;;;;;;;;;;;17.80;88.40;;;;;;5015520;28;19921;-62
2021/06/27 04:56:08;;;;;;;;;;;17.90;88.50;;;;;;5032923;28;20382;-62
2021/06/27 04:58:33;;;;;;;;;;;18.00;88.40;;;;;;5033380;28;19924;-62
2021/06/27 05:00:59;;;;;;;;;;;18.10;88.20;;;;;;5033503;28;19917;-62
2021/06/27 05:03:24;;;;;;;;;;;18.20;87.90;;;;;;5032966;28;19917;-63
2021/06/27 05:05:50;;;;;;;;;;;18.20;87.70;;;;;;5033289;28;19967;-63
2021/06/27 05:08:15;;;;;;;;;;;18.30;87.90;;;;;;5015048;28;20393;-63
2021/06/27 05:10:41;;;;;;;;;;;18.40;87.60;;;;;;5033118;28;19917;-63
2021/06/27 05:13:07;;;;;;;;;;;18.50;87.50;;;;;;5033293;28;19913;-63
2021/06/27 05:15:32;;;;;;;;;;;18.60;87.30;;;;;;5032555;28;19990;-62
2021/06/27 05:17:58;;;;;;;;;;;18.70;86.90;;;;;;5015042;28;19933;-63
2021/06/27 05:20:23;;;;;;;;;;;18.70;86.60;;;;;;5033123;28;19917;-62
2021/06/27 05:22:49;;;;;;;;;;;18.80;86.90;;;;;;5015155;28;20447;-63
2021/06/27 05:25:14;;;;;;;;;;;19.00;87.00;;;;;;5031583;28;19971;-63
2021/06/27 05:27:40;;;;;;;;;;;19.20;87.00;;;;;;5032667;28;20001;-63
2021/06/27 05:30:06;;;;;;;;;;;19.40;86.80;;;;;;5032499;28;20039;-63
2021/06/27 05:32:32;;;;;;;;;;;19.50;86.40;;;;;;5032712;28;19917;-63
2021/06/27 05:34:58;;;;;;;;;;;19.60;85.70;;;;;;5014484;28;19928;-65
2021/06/27 05:37:23;;;;;;;;;;;19.70;85.40;;;;;;5032444;28;19923;-65
2021/06/27 05:39:49;;;;;;;;;;;19.80;84.80;;;;;;5032736;28;19964;-65
2021/06/27 05:42:15;;;;;;;;;;;19.80;84.40;;;;;;5032281;28;19921;-65
2021/06/27 05:44:40;;;;;;;;;;;19.80;84.30;;;;;;5014955;28;19956;-65
2021/06/27 05:47:06;;;;;;;;;;;20.00;84.20;;;;;;5032287;28;20000;-65
2021/06/27 05:49:32;;;;;;;;;;;20.10;83.80;;;;;;5032010;28;19917;-65
2021/06/27 05:51:57;;;;;;;;;;;20.10;83.40;;;;;;5014824;28;20431;-65
2021/06/27 05:54:23;;;;;;;;;;;20.20;83.00;;;;;;5031793;28;20399;-65
2021/06/27 05:56:48;;;;;;;;;;;20.20;82.40;;;;;;5032190;28;19917;-65
2021/06/27 05:59:14;;;;;;;;;;;20.20;82.00;;;;;;5014679;28;19917;-65
2021/06/27 06:01:39;;;;;;;;;;;20.20;81.80;;;;;;5031796;28;19966;-65
2021/06/27 06:04:05;;;;;;;;;;;20.20;81.80;;;;;;5031926;28;19955;-65
2021/06/27 06:06:30;;;;;;;;;;;20.40;82.60;;;;;;5031797;28;19921;-65
2021/06/27 06:08:56;;;;;;;;;;;20.80;83.60;;;;;;5031347;28;19921;-65
2021/06/27 06:11:26;;;;;;;;;;;21.70;85.90;;;;;;5030898;28;19917;-65
2021/06/27 06:13:52;;;;;;;;;;;22.90;86.20;;;;;;5031714;28;20392;-65
2021/06/27 06:16:18;;;;;;;;;;;23.40;81.80;;;;;;5031871;28;19921;-67
2021/06/27 06:18:44;;;;;;;;;;;23.80;79.80;;;;;;5031648;28;20011;-67
2021/06/27 06:21:10;;;;;;;;;;;24.30;78.80;;;;;;5031424;28;20316;-66
2021/06/27 06:23:36;;;;;;;;;;;25.10;78.70;;;;;;5031939;28;20008;-66
2021/06/27 06:26:02;;;;;;;;;;;26.20;78.50;;;;;;5031473;28;20004;-66
2021/06/27 06:28:27;;;;;;;;;;;27.20;76.60;;;;;;5031596;28;19921;-64
2021/06/27 06:30:53;;;;;;;;;;;28.30;74.50;;;;;;5014181;28;20016;-64
2021/06/27 06:33:18;;;;;;;;;;;29.00;70.70;;;;;;5031261;28;19986;-64
2021/06/27 06:35:44;;;;;;;;;;;29.40;66.90;;;;;;5031748;28;19925;-64
2021/06/27 06:38:10;;;;;;;;;;;29.30;64.20;;;;;;5013895;28;19924;-64
2021/06/27 06:40:37;;;;;;;;;;;29.40;63.30;;;;;;5031320;28;20369;-64
2021/06/27 06:43:02;;;;;;;;;;;29.60;62.10;;;;;;5031664;28;19961;-64
2021/06/27 06:45:28;;;;;;;;;;;29.90;60.60;;;;;;5052940;22;19925;-69
2021/06/27 06:47:54;;;;;;;;;;;30.40;60.20;;;;;;5050938;28;19963;-68
2021/06/27 06:50:20;;;;;;;;;;;30.90;58.70;;;;;;5051625;28;20390;-69
2021/06/27 06:52:46;;;;;;;;;;;31.20;56.40;;;;;;5033334;28;19917;-69
2021/06/27 06:55:12;;;;;;;;;;;31.40;54.40;;;;;;5051237;28;19921;-68
2021/06/27 06:57:37;;;;;;;;;;;31.00;52.50;;;;;;5033337;28;19917;-68
2021/06/27 07:00:07;;;;;;;;;;;31.10;53.00;;;;;;5051010;28;20003;-68
2021/06/27 07:02:33;;;;;;;;;;;30.80;50.60;;;;;;5033545;28;19916;-68
2021/06/27 07:05:00;;;;;;;;;;;30.70;51.60;;;;;;5033518;28;20262;-68
2021/06/27 07:07:25;;;;;;;;;;;31.70;52.30;;;;;;5032988;28;19924;-68
2021/06/27 07:09:51;;;;;;;;;;;32.50;50.40;;;;;;5051139;28;19917;-68
2021/06/27 07:12:16;;;;;;;;;;;32.30;47.80;;;;;;5050978;28;19916;-69
2021/06/27 07:14:44;;;;;;;;;;;32.60;48.30;;;;;;5033326;28;19953;-68
2021/06/27 07:17:10;;;;;;;;;;;33.70;48.10;;;;;;5053916;28;19920;-68
2021/06/27 07:19:35;;;;;;;;;;;34.70;46.80;;;;;;5054940;28;19923;-69
2021/06/27 07:22:01;;;;;;;;;;;35.20;44.90;;;;;;5055315;28;20077;-68
2021/06/27 07:24:26;;;;;;;;;;;35.40;43.80;;;;;;5055123;28;19920;-68
2021/06/27 07:26:52;;;;;;;;;;;35.10;41.80;;;;;;5054684;28;19971;-70
2021/06/27 07:29:17;;;;;;;;;;;35.20;42.70;;;;;;5055029;28;19935;-68
2021/06/27 07:31:43;;;;;;;;;;;35.90;42.10;;;;;;5054746;28;19990;-68
2021/06/27 07:34:08;;;;;;;;;;;36.50;41.50;;;;;;5054949;28;19923;-69
2021/06/27 07:36:34;;;;;;;;;;;37.30;40.60;;;;;;5054828;28;19928;-69
2021/06/27 07:38:59;;;;;;;;;;;38.20;40.00;;;;;;5054295;28;19966;-69
2021/06/27 07:41:25;;;;;;;;;;;39.00;38.70;;;;;;5054903;28;19963;-69
2021/06/27 07:43:51;;;;;;;;;;;39.80;37.70;;;;;;5055035;28;19924;-69
2021/06/27 07:46:17;;;;;;;;;;;40.40;36.40;;;;;;5036318;28;19927;-68
2021/06/27 07:48:42;;;;;;;;;;;41.00;35.40;;;;;;5020320;28;19966;-69
2021/06/27 07:51:09;;;;;;;;;;;41.50;34.60;;;;;;5054324;28;19921;-68
2021/06/27 07:53:34;;;;;;;;;;;41.70;33.40;;;;;;5036959;28;20389;-68
2021/06/27 07:56:00;;;;;;;;;;;42.10;32.90;;;;;;5054690;28;19973;-69
2021/06/27 07:58:25;;;;;;;;;;;42.60;32.20;;;;;;5053827;28;19913;-69
2021/06/27 08:00:51;;;;;;;;;;;43.10;31.50;;;;;;5054471;28;19952;-69
2021/06/27 08:03:17;;;;;;;;;;;43.40;30.30;;;;;;5054629;28;19921;-69
2021/06/27 08:05:42;;;;;;;;;;;43.60;29.80;;;;;;5036143;28;19935;-70
2021/06/27 08:08:08;;;;;;;;;;;43.80;29.50;;;;;;5054176;28;19940;-69
2021/06/27 08:10:33;;;;;;;;;;;44.10;29.30;;;;;;5054258;28;19944;-69
2021/06/27 08:12:59;;;;;;;;;;;44.40;28.80;;;;;;5035729;28;20407;-70
2021/06/27 08:15:26;;;;;;;;;;;44.60;28.30;;;;;;5054168;28;19921;-69
2021/06/27 08:17:52;;;;;;;;;;;44.50;27.80;;;;;;5053592;28;19996;-70
2021/06/27 08:20:18;;;;;;;;;;;44.40;27.30;;;;;;5036343;28;19956;-69
2021/06/27 08:22:44;;;;;;;;;;;44.30;27.40;;;;;;5054274;28;19924;-68
2021/06/27 08:25:10;;;;;;;;;;;44.40;27.50;;;;;;5053611;28;20285;-69
2021/06/27 08:27:36;;;;;;;;;;;44.80;27.20;;;;;;5052977;28;19917;-70
2021/06/27 08:30:04;;;;;;;;;;;44.90;26.60;;;;;;5053962;28;20325;-70
2021/06/27 08:32:30;;;;;;;;;;;44.80;26.70;;;;;;5053737;28;19959;-70
2021/06/27 08:34:56;;;;;;;;;;;45.10;26.70;;;;;;5054034;28;19928;-69
2021/06/27 08:37:22;;;;;;;;;;;45.70;26.50;;;;;;5053147;28;19917;-68
2021/06/27 08:39:47;;;;;;;;;;;45.90;26.40;;;;;;5053993;28;19916;-69
2021/06/27 08:42:16;;;;;;;;;;;46.10;26.10;;;;;;5053900;28;20138;-69
2021/06/27 08:44:42;;;;;;;;;;;46.60;26.00;;;;;;5034943;28;19917;-69
2021/06/27 08:47:09;;;;;;;;;;;47.00;25.80;;;;;;5035580;28;19974;-70
2021/06/27 08:49:35;;;;;;;;;;;47.30;25.40;;;;;;5053370;28;19924;-70
2021/06/27 08:52:01;;;;;;;;;;;47.70;25.30;;;;;;5053896;28;19967;-70
2021/06/27 08:54:27;;;;;;;;;;;48.00;25.00;;;;;;5053449;28;19917;-70
2021/06/27 08:56:54;;;;;;;;;;;48.30;24.70;;;;;;5052822;28;20007;-70
2021/06/27 08:59:20;;;;;;;;;;;48.40;24.50;;;;;;5053378;28;20389;-69
2021/06/27 09:01:45;;;;;;;;;;;48.50;24.60;;;;;;5053553;28;19970;-68
2021/06/27 09:04:14;;;;;;;;;;;48.30;24.50;;;;;;5053180;28;19920;-69
2021/06/27 09:06:40;;;;;;;;;;;48.50;24.50;;;;;;5053302;28;19921;-69
2021/06/27 09:09:19;;;;;;;;;;;48.80;24.60;;;;;;5052920;28;19917;-71
2021/06/27 09:12:04;;;;;;;;;;;49.20;24.40;;;;;;5053302;28;20007;-69
2021/06/27 09:14:33;;;;;;;;;;;49.50;24.10;;;;;;5052828;28;19939;-69
2021/06/27 09:17:11;;;;;;;;;;;49.50;23.70;;;;;;5052834;28;19917;-68
2021/06/27 09:20:07;;;;;;;;;;;49.40;24.00;;;;;;5052962;28;19924;-69
2021/06/27 09:22:37;;;;;;;;;;;49.00;23.60;;;;;;5018770;28;19917;-70
2021/06/27 09:25:19;;;;;;;;;;;48.80;24.10;;;;;;5051700;28;20266;-70
2021/06/27 09:27:46;;;;;;;;;;;49.20;24.00;;;;;;5052518;28;19924;-69
2021/06/27 09:30:19;;;;;;;;;;;50.00;24.10;;;;;;5052780;28;20012;-69
2021/06/27 09:32:53;;;;;;;;;;;48.80;23.20;;;;;;5052476;28;20012;-68
2021/06/27 09:35:38;;;;;;;;;;;46.90;23.60;;;;;;5052674;28;19999;-69
2021/06/27 09:38:19;;;;;;;;;;;44.30;23.90;;;;;;5052026;28;19917;-71
2021/06/27 09:40:46;;;;;;;;;;;42.50;25.60;;;;;;5052414;28;20384;-68
2021/06/27 09:43:11;;;;;;;;;;;43.50;26.30;;;;;;5052568;28;19920;-69
2021/06/27 09:45:47;;;;;;;;;;;45.30;26.20;;;;;;5052522;28;20234;-68
2021/06/27 09:48:13;;;;;;;;;;;47.20;25.80;;;;;;5034045;28;19921;-69
2021/06/27 09:50:39;;;;;;;;;;;48.40;24.90;;;;;;5052552;28;19917;-69
2021/06/27 09:53:05;;;;;;;;;;;49.20;24.40;;;;;;5052753;28;20446;-69
2021/06/27 09:55:30;;;;;;;;;;;49.10;23.90;;;;;;5050568;28;20372;-68
2021/06/27 09:58:15;;;;;;;;;;;48.10;24.00;;;;;;5052070;28;20028;-69
2021/06/27 10:00:41;;;;;;;;;;;48.70;24.60;;;;;;5052064;28;19928;-73
2021/06/27 10:03:09;;;;;;;;;;;48.40;24.10;;;;;;5052346;28;20292;-71
2021/06/27 10:05:34;;;;;;;;;;;48.10;23.70;;;;;;5033870;28;19917;-71
2021/06/27 10:08:00;;;;;;;;;;;46.30;24.10;;;;;;5051898;28;20458;-73
2021/06/27 10:10:26;;;;;;;;;;;46.70;25.30;;;;;;5052264;28;19967;-72
2021/06/27 10:12:51;;;;;;;;;;;48.30;25.00;;;;;;5051762;28;19978;-73
2021/06/27 10:15:17;;;;;;;;;;;49.70;24.70;;;;;;5034068;28;20357;-71
2021/06/27 10:17:43;;;;;;;;;;;50.90;23.90;;;;;;5051285;28;20285;-71
2021/06/27 10:20:10;;;;;;;;;;;51.70;23.70;;;;;;5051948;28;19948;-73
2021/06/27 10:22:36;;;;;;;;;;;51.90;23.30;;;;;;5033980;28;19917;-73
2021/06/27 10:25:03;;;;;;;;;;;50.40;22.30;;;;;;5033620;28;19971;-72
2021/06/27 10:27:28;;;;;;;;;;;46.80;22.50;;;;;;5033757;28;19916;-70
2021/06/27 10:29:54;;;;;;;;;;;45.20;24.90;;;;;;5051944;28;19916;-72
2021/06/27 10:32:20;;;;;;;;;;;44.50;24.30;;;;;;5051277;28;20372;-72
2021/06/27 10:34:46;;;;;;;;;;;42.50;24.50;;;;;;5051755;28;19921;-72
2021/06/27 10:37:17;;;;;;;;;;;40.20;25.30;;;;;;5050926;28;19916;-72
2021/06/27 10:39:58;;;;;;;;;;;38.90;26.50;;;;;;5051556;28;19921;-72
2021/06/27 10:42:43;;;;;;;;;;;39.80;28.60;;;;;;5051360;28;19917;-73
2021/06/27 10:45:09;;;;;;;;;;;43.20;28.30;;;;;;5051232;28;19924;-72
2021/06/27 10:47:35;;;;;;;;;;;45.10;26.00;;;;;;5050803;28;20042;-72
2021/06/27 10:50:04;;;;;;;;;;;43.50;25.20;;;;;;5017365;28;19924;-73
2021/06/27 10:52:50;;;;;;;;;;;40.90;25.50;;;;;;5033111;28;20393;-72
2021/06/27 10:55:17;;;;;;;;;;;39.50;27.60;;;;;;5049846;28;20071;-74
2021/06/27 10:57:52;;;;;;;;;;;40.70;28.10;;;;;;5032883;28;19923;-71
2021/06/27 11:00:19;;;;;;;;;;;41.80;28.00;;;;;;5051541;28;20372;-73
2021/06/27 11:02:44;;;;;;;;;;;44.60;27.70;;;;;;5051100;28;19917;-72
2021/06/27 11:05:39;;;;;;;;;;;47.00;26.40;;;;;;5051319;28;19924;-72
2021/06/27 11:08:05;;;;;;;;;;;47.20;25.00;;;;;;5048479;28;19924;-72
2021/06/27 11:10:34;;;;;;;;;;;46.20;25.20;;;;;;5051277;28;19949;-72
2021/06/27 11:13:02;;;;;;;;;;;47.10;25.60;;;;;;5050836;28;20396;-72
2021/06/27 11:15:29;;;;;;;;;;;48.50;25.30;;;;;;5051100;28;19921;-73
2021/06/27 11:17:57;;;;;;;;;;;49.80;24.80;;;;;;5050969;28;19917;-72
2021/06/27 11:20:23;;;;;;;;;;;50.60;23.80;;;;;;5032895;28;19912;-72
2021/06/27 11:22:53;;;;;;;;;;;51.10;23.70;;;;;;5051251;28;20369;-73
2021/06/27 11:25:32;;;;;;;;;;;51.40;23.40;;;;;;5050593;28;19971;-71
2021/06/27 11:27:57;;;;;;;;;;;51.00;22.80;;;;;;5033147;28;20377;-72
2021/06/27 11:30:29;;;;;;;;;;;50.40;23.00;;;;;;5050761;28;19923;-71
2021/06/27 11:32:55;;;;;;;;;;;50.20;22.90;;;;;;5033167;28;19917;-72
2021/06/27 11:35:38;;;;;;;;;;;49.70;23.00;;;;;;5051005;28;19920;-72
2021/06/27 11:38:04;;;;;;;;;;;48.80;23.00;;;;;;5032605;28;19971;-73
2021/06/27 11:40:48;;;;;;;;;;;46.70;23.10;;;;;;5051102;28;19920;-72
2021/06/27 11:43:14;;;;;;;;;;;44.30;23.70;;;;;;5050662;28;19917;-72
2021/06/27 11:45:41;;;;;;;;;;;41.70;24.40;;;;;;5050738;28;19928;-72
2021/06/27 11:48:09;;;;;;;;;;;39.80;25.30;;;;;;5032511;28;19917;-72
2021/06/27 11:50:38;;;;;;;;;;;38.70;26.40;;;;;;5033082;28;20327;-72
2021/06/27 11:53:05;;;;;;;;;;;38.20;27.10;;;;;;5032868;28;20292;-71
2021/06/27 11:55:32;;;;;;;;;;;38.20;27.40;;;;;;5032805;28;19921;-71
2021/06/27 11:57:57;;;;;;;;;;;38.30;27.90;;;;;;5050755;28;20293;-72
2021/06/27 12:00:33;;;;;;;;;;;38.70;27.90;;;;;;5050320;28;19913;-72
2021/06/27 12:03:06;;;;;;;;;;;39.10;27.70;;;;;;5051889;28;19956;-72
2021/06/27 12:05:31;;;;;;;;;;;39.20;27.40;;;;;;5054069;28;19923;-72
2021/06/27 12:08:02;;;;;;;;;;;39.20;27.50;;;;;;5054217;28;20381;-73
2021/06/27 12:10:28;;;;;;;;;;;39.10;27.20;;;;;;5020114;28;20016;-72
2021/06/27 12:12:56;;;;;;;;;;;38.60;27.10;;;;;;5053843;28;19957;-72
2021/06/27 12:15:22;;;;;;;;;;;37.60;27.30;;;;;;5036514;28;20399;-72
2021/06/27 12:17:50;;;;;;;;;;;36.50;27.60;;;;;;5053518;28;19917;-73
2021/06/27 12:20:16;;;;;;;;;;;35.60;28.30;;;;;;5054209;28;19945;-73
2021/06/27 12:22:53;;;;;;;;;;;35.10;28.60;;;;;;5054167;28;20381;-72
2021/06/27 12:25:26;;;;;;;;;;;34.60;29.20;;;;;;5036053;28;19917;-73
2021/06/27 12:27:52;;;;;;;;;;;34.30;29.70;;;;;;5036114;28;19917;-72
2021/06/27 12:30:18;;;;;;;;;;;34.00;29.50;;;;;;5053445;28;20004;-72
2021/06/27 12:33:00;;;;;;;;;;;33.50;30.00;;;;;;5019684;28;20007;-72
2021/06/27 12:35:25;;;;;;;;;;;33.20;30.50;;;;;;5053670;28;19932;-72
2021/06/27 12:37:51;;;;;;;;;;;32.60;31.00;;;;;;5053786;28;20475;-73
2021/06/27 12:40:17;;;;;;;;;;;32.10;31.40;;;;;;5054331;28;19928;-73
2021/06/27 12:42:42;;;;;;;;;;;31.70;31.90;;;;;;5053230;28;19939;-72
2021/06/27 12:45:15;;;;;;;;;;;31.50;32.60;;;;;;5064440;22;19908;-71
2021/06/27 12:47:41;;;;;;;;;;;31.30;33.40;;;;;;5032998;28;19923;-71
2021/06/27 12:50:08;;;;;;;;;;;31.10;33.10;;;;;;5032990;28;21204;-71
2021/06/27 12:52:34;;;;;;;;;;;30.90;33.50;;;;;;5033515;28;19924;-70
2021/06/27 12:54:59;;;;;;;;;;;30.60;33.70;;;;;;5033213;28;19975;-71
2021/06/27 12:57:26;;;;;;;;;;;30.30;34.60;;;;;;5015815;28;20399;-70
2021/06/27 12:59:53;;;;;;;;;;;30.30;35.10;;;;;;5015364;28;20073;-70
2021/06/27 13:02:23;;;;;;;;;;;30.30;35.40;;;;;;5033639;28;19948;-70
2021/06/27 13:04:49;;;;;;;;;;;30.40;35.60;;;;;;5015423;28;20345;-70
2021/06/27 13:07:33;;;;;;;;;;;30.40;35.70;;;;;;5032529;28;19928;-70
2021/06/27 13:10:01;;;;;;;;;;;30.50;36.00;;;;;;5032741;28;19921;-70
2021/06/27 13:12:27;;;;;;;;;;;30.50;36.30;;;;;;5033065;28;20290;-70
2021/06/27 13:15:12;;;;;;;;;;;30.50;36.80;;;;;;5032868;28;20218;-71
2021/06/27 13:17:44;;;;;;;;;;;30.60;36.50;;;;;;5032521;28;19917;-70
2021/06/27 13:20:16;;;;;;;;;;;30.60;36.60;;;;;;5033161;28;19924;-70
2021/06/27 13:23:00;;;;;;;;;;;30.50;36.70;;;;;;5014679;28;19921;-68
2021/06/27 13:25:40;;;;;;;;;;;30.30;36.60;;;;;;5033043;28;19917;-70
2021/06/27 13:28:07;;;;;;;;;;;30.10;37.20;;;;;;5014560;28;20297;-70
2021/06/27 13:30:43;;;;;;;;;;;30.00;37.40;;;;;;4998976;28;20027;-70
2021/06/27 13:33:09;;;;;;;;;;;29.90;37.70;;;;;;5032348;28;19917;-71
2021/06/27 13:35:39;;;;;;;;;;;29.90;38.00;;;;;;4998375;28;20447;-71
2021/06/27 13:38:06;;;;;;;;;;;29.90;38.00;;;;;;5032545;28;20298;-70
2021/06/27 13:40:35;;;;;;;;;;;29.80;38.00;;;;;;5032200;28;19921;-70
2021/06/27 13:43:01;;;;;;;;;;;29.90;38.50;;;;;;4998797;28;19944;-70
2021/06/27 13:45:28;;;;;;;;;;;29.80;38.40;;;;;;5032146;28;19921;-70
2021/06/27 13:47:53;;;;;;;;;;;29.70;38.40;;;;;;5014687;28;20377;-70
2021/06/27 13:50:20;;;;;;;;;;;29.60;38.80;;;;;;5032594;28;19924;-70
2021/06/27 13:52:46;;;;;;;;;;;29.50;38.90;;;;;;5032101;28;20003;-71
2021/06/27 13:55:13;;;;;;;;;;;29.50;39.20;;;;;;5031115;28;20016;-70
2021/06/27 13:57:38;;;;;;;;;;;29.60;39.30;;;;;;5014113;28;20453;-71
2021/06/27 14:00:07;;;;;;;;;;;29.60;39.60;;;;;;5014478;28;19996;-69
2021/06/27 14:02:38;;;;;;;;;;;29.70;39.60;;;;;;5031870;28;20000;-70
2021/06/27 14:05:05;;;;;;;;;;;29.60;39.20;;;;;;5014321;28;19921;-70
2021/06/27 14:07:31;;;;;;;;;;;29.30;39.10;;;;;;5014130;28;20435;-70
2021/06/27 14:09:57;;;;;;;;;;;29.10;39.50;;;;;;5031170;28;20016;-69
2021/06/27 14:12:23;;;;;;;;;;;29.00;39.90;;;;;;5014575;28;20008;-69
2021/06/27 14:14:48;;;;;;;;;;;29.00;40.00;;;;;;5031955;28;20266;-71
2021/06/27 14:17:14;;;;;;;;;;;29.10;40.20;;;;;;5031237;28;19917;-69